ADDS METAR Data INFO
IDs: Format: Raw Decoded Include TAF

Data at: 0103 UTC 21 Oct 2017

KBCT 210049Z 06018KT 10SM BKN030 27/21 A3005
KBCT 202347Z 07014G26KT 10SM SCT028 27/22 A3003
KBCT 202255Z 07016G23KT 10SM SCT027 27/22 A3002
KBCT 202055Z 06019G25KT 10SM SCT023 BKN038 27/23 A3000
KBCT 201952Z 06012G23KT 5 RA SCT020 BKN025 26/24 A3000
KBCT 201947Z 06012G25KT 2 1/2 RA SCT020 BKN050 27/23 A3000
KBCT 201846Z 06020G25KT 10SM SCT020 28/23 A3001
KBCT 201746Z 05014KT 5SM -RA FEW016 BKN025 26/24 A3003
KBCT 201710Z 09015G30KT 10SM BKN016 26/24 A3005
KBCT 201547Z 09015G25KT 10SM SCT025 30/23 A3006
KBCT 201447Z 08012KT 10SM SCT020 28/24 A3006
KBCT 201355Z 08012KT 10SM SCT020 28/24 A3006
KBCT 201255Z 08012KT 10SM SCT030 28/23 A3005
KBCT 201155Z 08010G16KT 10SM SCT025 27/23 A3004
KBCT 201047Z 09010KT 10SM SCT022 27/23 A3003
KBCT 200247Z 08017KT 10SM SCT026 27/22 A3005 RMK LAST
KBCT 200147Z 07013KT 10SM SCT026 27/22 A3004
KBCT 200050Z 07015G21KT 10SM SCT025 27/22 A3003
KBCT 192356Z 07017G23KT 10SM SCT026 27/22 A3001
KBCT 192247Z 06015KT 10SM SCT023 27/23 A2999
KBCT 192147Z 07012KT 10SM SCT024 2823 A2999
KBCT 192047Z 06012KT 10SM SCT023 29/23 A2998
KBCT 191949Z 06012KT 10SM SCT020 29/23 A2998
KBCT 191849Z 09010KTS 10SM SCT020 29/24 A2999
KBCT 191749Z 09010KTS 10SM SCT020 30/24 A3000
KBCT 191649Z 04010KTS 10SM SCT020 30/24 A3003
KBCT 191549Z 01006KT 10SM FEW024 27/24 A3005
KBCT 191447Z 02008KT 7SM -DZ SCT070 25/23 A3005
KBCT 191347Z 03004KT 10SM SCT040 26/24 A3004